sensor_id;sensor_type;location;lat;lon;timestamp;P1;durP1;ratioP1;P2;durP2;ratioP2
49840;SDS011;35738;49.890;5.930;2022-09-09T00:04:35;4.95;;;2.35;;
49840;SDS011;35738;49.890;5.930;2022-09-09T00:07:05;5.68;;;2.25;;
49840;SDS011;35738;49.890;5.930;2022-09-09T00:09:46;6.25;;;2.17;;
49840;SDS011;35738;49.890;5.930;2022-09-09T00:12:36;9.00;;;2.30;;
49840;SDS011;35738;49.890;5.930;2022-09-09T00:15:41;7.32;;;2.92;;
49840;SDS011;35738;49.890;5.930;2022-09-09T00:21:07;4.28;;;2.15;;
49840;SDS011;35738;49.890;5.930;2022-09-09T00:24:00;5.00;;;2.03;;
49840;SDS011;35738;49.890;5.930;2022-09-09T00:26:36;4.60;;;2.50;;
49840;SDS011;35738;49.890;5.930;2022-09-09T00:29:19;3.63;;;1.80;;
49840;SDS011;35738;49.890;5.930;2022-09-09T00:32:16;4.28;;;1.90;;
49840;SDS011;35738;49.890;5.930;2022-09-09T00:34:49;2.85;;;2.00;;
49840;SDS011;35738;49.890;5.930;2022-09-09T00:37:20;4.40;;;1.85;;
49840;SDS011;35738;49.890;5.930;2022-09-09T00:39:53;4.97;;;2.08;;
49840;SDS011;35738;49.890;5.930;2022-09-09T00:42:25;4.30;;;2.05;;
49840;SDS011;35738;49.890;5.930;2022-09-09T00:47:50;5.72;;;1.85;;
49840;SDS011;35738;49.890;5.930;2022-09-09T00:58:34;4.35;;;1.85;;
49840;SDS011;35738;49.890;5.930;2022-09-09T01:09:13;4.75;;;1.92;;
49840;SDS011;35738;49.890;5.930;2022-09-09T01:11:52;6.03;;;2.00;;
49840;SDS011;35738;49.890;5.930;2022-09-09T01:17:13;5.95;;;2.05;;
49840;SDS011;35738;49.890;5.930;2022-09-09T01:19:57;7.07;;;2.25;;
49840;SDS011;35738;49.890;5.930;2022-09-09T01:22:40;3.05;;;1.80;;
49840;SDS011;35738;49.890;5.930;2022-09-09T01:25:29;4.93;;;2.15;;
49840;SDS011;35738;49.890;5.930;2022-09-09T01:28:22;5.32;;;2.03;;
49840;SDS011;35738;49.890;5.930;2022-09-09T01:30:52;6.38;;;1.77;;
49840;SDS011;35738;49.890;5.930;2022-09-09T01:33:20;4.68;;;2.10;;
49840;SDS011;35738;49.890;5.930;2022-09-09T01:35:52;5.38;;;2.00;;
49840;SDS011;35738;49.890;5.930;2022-09-09T01:38:22;7.78;;;2.08;;
49840;SDS011;35738;49.890;5.930;2022-09-09T01:40:51;5.55;;;1.98;;
49840;SDS011;35738;49.890;5.930;2022-09-09T01:43:22;3.95;;;1.83;;
49840;SDS011;35738;49.890;5.930;2022-09-09T01:45:52;7.18;;;2.30;;
49840;SDS011;35738;49.890;5.930;2022-09-09T01:48:22;5.60;;;2.20;;
49840;SDS011;35738;49.890;5.930;2022-09-09T01:50:51;5.65;;;2.72;;
49840;SDS011;35738;49.890;5.930;2022-09-09T01:53:18;6.45;;;2.38;;
49840;SDS011;35738;49.890;5.930;2022-09-09T01:55:56;6.15;;;3.03;;
49840;SDS011;35738;49.890;5.930;2022-09-09T02:06:57;7.07;;;2.40;;
49840;SDS011;35738;49.890;5.930;2022-09-09T02:09:24;7.20;;;2.50;;
49840;SDS011;35738;49.890;5.930;2022-09-09T02:11:55;5.90;;;2.17;;
49840;SDS011;35738;49.890;5.930;2022-09-09T02:14:30;4.32;;;2.53;;
49840;SDS011;35738;49.890;5.930;2022-09-09T02:17:07;5.63;;;2.30;;
49840;SDS011;35738;49.890;5.930;2022-09-09T02:19:43;4.97;;;2.13;;
49840;SDS011;35738;49.890;5.930;2022-09-09T02:22:16;4.10;;;2.58;;
49840;SDS011;35738;49.890;5.930;2022-09-09T02:24:45;7.60;;;2.45;;
49840;SDS011;35738;49.890;5.930;2022-09-09T02:27:13;6.20;;;2.83;;
49840;SDS011;35738;49.890;5.930;2022-09-09T02:29:42;5.63;;;2.83;;
49840;SDS011;35738;49.890;5.930;2022-09-09T02:32:11;2.92;;;2.20;;
49840;SDS011;35738;49.890;5.930;2022-09-09T02:34:47;7.65;;;2.58;;
49840;SDS011;35738;49.890;5.930;2022-09-09T02:37:19;6.75;;;2.70;;
49840;SDS011;35738;49.890;5.930;2022-09-09T02:39:49;6.20;;;2.42;;
49840;SDS011;35738;49.890;5.930;2022-09-09T02:42:16;6.72;;;2.33;;
49840;SDS011;35738;49.890;5.930;2022-09-09T02:44:43;7.57;;;2.47;;
49840;SDS011;35738;49.890;5.930;2022-09-09T02:50:04;5.95;;;2.88;;
49840;SDS011;35738;49.890;5.930;2022-09-09T02:55:12;7.30;;;2.75;;
49840;SDS011;35738;49.890;5.930;2022-09-09T02:57:47;7.30;;;2.63;;
49840;SDS011;35738;49.890;5.930;2022-09-09T03:00:16;8.95;;;3.22;;
49840;SDS011;35738;49.890;5.930;2022-09-09T03:02:48;8.80;;;2.97;;
49840;SDS011;35738;49.890;5.930;2022-09-09T03:05:15;8.05;;;2.72;;
49840;SDS011;35738;49.890;5.930;2022-09-09T03:07:42;6.72;;;2.70;;
49840;SDS011;35738;49.890;5.930;2022-09-09T03:10:09;8.40;;;3.03;;
49840;SDS011;35738;49.890;5.930;2022-09-09T03:12:36;8.90;;;2.72;;
49840;SDS011;35738;49.890;5.930;2022-09-09T03:15:03;7.90;;;3.30;;
49840;SDS011;35738;49.890;5.930;2022-09-09T03:17:30;8.68;;;3.15;;
49840;SDS011;35738;49.890;5.930;2022-09-09T03:19:57;6.22;;;2.90;;
49840;SDS011;35738;49.890;5.930;2022-09-09T03:22:24;7.78;;;2.38;;
49840;SDS011;35738;49.890;5.930;2022-09-09T03:24:51;9.77;;;3.35;;
49840;SDS011;35738;49.890;5.930;2022-09-09T03:27:18;9.48;;;3.38;;
49840;SDS011;35738;49.890;5.930;2022-09-09T03:29:46;7.45;;;3.35;;
49840;SDS011;35738;49.890;5.930;2022-09-09T03:32:12;10.63;;;3.20;;
49840;SDS011;35738;49.890;5.930;2022-09-09T03:34:39;6.63;;;2.75;;
49840;SDS011;35738;49.890;5.930;2022-09-09T03:37:06;7.15;;;3.45;;
49840;SDS011;35738;49.890;5.930;2022-09-09T03:39:33;9.43;;;3.30;;
49840;SDS011;35738;49.890;5.930;2022-09-09T03:42:00;7.90;;;2.92;;
49840;SDS011;35738;49.890;5.930;2022-09-09T03:44:30;6.78;;;3.05;;
49840;SDS011;35738;49.890;5.930;2022-09-09T03:46:56;11.50;;;3.33;;
49840;SDS011;35738;49.890;5.930;2022-09-09T03:49:26;9.80;;;3.00;;
49840;SDS011;35738;49.890;5.930;2022-09-09T03:51:56;9.82;;;3.08;;
49840;SDS011;35738;49.890;5.930;2022-09-09T03:54:24;9.38;;;2.90;;
49840;SDS011;35738;49.890;5.930;2022-09-09T03:56:51;12.20;;;3.15;;
49840;SDS011;35738;49.890;5.930;2022-09-09T03:59:18;10.82;;;3.30;;
49840;SDS011;35738;49.890;5.930;2022-09-09T04:01:44;10.55;;;3.00;;
49840;SDS011;35738;49.890;5.930;2022-09-09T04:04:13;7.32;;;2.45;;
49840;SDS011;35738;49.890;5.930;2022-09-09T04:06:39;8.93;;;3.03;;
49840;SDS011;35738;49.890;5.930;2022-09-09T04:09:06;8.65;;;2.92;;
49840;SDS011;35738;49.890;5.930;2022-09-09T04:11:33;7.60;;;2.70;;
49840;SDS011;35738;49.890;5.930;2022-09-09T04:14:00;10.73;;;2.53;;
49840;SDS011;35738;49.890;5.930;2022-09-09T04:16:27;8.40;;;2.42;;
49840;SDS011;35738;49.890;5.930;2022-09-09T04:18:53;8.07;;;2.70;;
49840;SDS011;35738;49.890;5.930;2022-09-09T04:21:20;11.80;;;2.60;;
49840;SDS011;35738;49.890;5.930;2022-09-09T04:23:47;9.95;;;2.30;;
49840;SDS011;35738;49.890;5.930;2022-09-09T04:26:14;9.02;;;2.40;;
49840;SDS011;35738;49.890;5.930;2022-09-09T04:28:41;8.00;;;2.55;;
49840;SDS011;35738;49.890;5.930;2022-09-09T04:31:15;7.68;;;2.50;;
49840;SDS011;35738;49.890;5.930;2022-09-09T04:33:46;8.77;;;2.38;;
49840;SDS011;35738;49.890;5.930;2022-09-09T04:36:13;8.43;;;2.60;;
49840;SDS011;35738;49.890;5.930;2022-09-09T04:38:40;7.60;;;2.40;;
49840;SDS011;35738;49.890;5.930;2022-09-09T04:41:07;11.85;;;2.50;;
49840;SDS011;35738;49.890;5.930;2022-09-09T04:43:34;10.77;;;2.45;;
49840;SDS011;35738;49.890;5.930;2022-09-09T04:46:00;10.45;;;2.50;;
49840;SDS011;35738;49.890;5.930;2022-09-09T04:48:27;13.90;;;2.88;;
49840;SDS011;35738;49.890;5.930;2022-09-09T04:50:57;14.35;;;2.78;;
49840;SDS011;35738;49.890;5.930;2022-09-09T04:53:25;11.32;;;2.80;;
49840;SDS011;35738;49.890;5.930;2022-09-09T04:56:00;11.18;;;2.63;;
49840;SDS011;35738;49.890;5.930;2022-09-09T04:58:28;9.73;;;2.80;;
49840;SDS011;35738;49.890;5.930;2022-09-09T05:01:02;15.27;;;2.67;;
49840;SDS011;35738;49.890;5.930;2022-09-09T05:03:30;10.05;;;3.08;;
49840;SDS011;35738;49.890;5.930;2022-09-09T05:06:04;11.63;;;2.72;;
49840;SDS011;35738;49.890;5.930;2022-09-09T05:08:33;8.05;;;2.70;;
49840;SDS011;35738;49.890;5.930;2022-09-09T05:11:00;7.45;;;2.20;;
49840;SDS011;35738;49.890;5.930;2022-09-09T05:13:29;10.25;;;2.50;;
49840;SDS011;35738;49.890;5.930;2022-09-09T05:15:57;9.55;;;2.45;;
49840;SDS011;35738;49.890;5.930;2022-09-09T05:18:24;7.53;;;2.33;;
49840;SDS011;35738;49.890;5.930;2022-09-09T05:20:51;9.35;;;2.20;;
49840;SDS011;35738;49.890;5.930;2022-09-09T05:23:18;9.82;;;2.47;;
49840;SDS011;35738;49.890;5.930;2022-09-09T05:25:53;9.63;;;2.55;;
49840;SDS011;35738;49.890;5.930;2022-09-09T05:28:21;12.52;;;3.30;;
49840;SDS011;35738;49.890;5.930;2022-09-09T05:31:03;8.68;;;2.42;;
49840;SDS011;35738;49.890;5.930;2022-09-09T05:33:35;8.80;;;2.28;;
49840;SDS011;35738;49.890;5.930;2022-09-09T05:36:03;8.00;;;2.42;;
49840;SDS011;35738;49.890;5.930;2022-09-09T05:38:33;11.57;;;2.40;;
49840;SDS011;35738;49.890;5.930;2022-09-09T05:41:00;9.68;;;2.78;;
49840;SDS011;35738;49.890;5.930;2022-09-09T05:43:28;11.43;;;2.10;;
49840;SDS011;35738;49.890;5.930;2022-09-09T05:45:59;12.80;;;2.63;;
49840;SDS011;35738;49.890;5.930;2022-09-09T05:48:30;8.32;;;2.53;;
49840;SDS011;35738;49.890;5.930;2022-09-09T05:51:00;10.75;;;2.58;;
49840;SDS011;35738;49.890;5.930;2022-09-09T05:53:29;6.72;;;2.00;;
49840;SDS011;35738;49.890;5.930;2022-09-09T05:56:07;5.65;;;2.10;;
49840;SDS011;35738;49.890;5.930;2022-09-09T05:58:39;8.85;;;2.58;;
49840;SDS011;35738;49.890;5.930;2022-09-09T06:01:11;9.27;;;2.28;;
49840;SDS011;35738;49.890;5.930;2022-09-09T06:03:40;7.88;;;2.35;;
49840;SDS011;35738;49.890;5.930;2022-09-09T06:06:10;12.05;;;2.55;;
49840;SDS011;35738;49.890;5.930;2022-09-09T06:08:41;6.10;;;2.03;;
49840;SDS011;35738;49.890;5.930;2022-09-09T06:11:30;7.43;;;2.03;;
49840;SDS011;35738;49.890;5.930;2022-09-09T06:13:57;6.97;;;2.13;;
49840;SDS011;35738;49.890;5.930;2022-09-09T06:16:25;6.93;;;2.20;;
49840;SDS011;35738;49.890;5.930;2022-09-09T06:18:54;9.38;;;2.30;;
49840;SDS011;35738;49.890;5.930;2022-09-09T06:21:26;6.93;;;2.05;;
49840;SDS011;35738;49.890;5.930;2022-09-09T06:23:56;3.70;;;1.90;;
49840;SDS011;35738;49.890;5.930;2022-09-09T06:26:30;6.90;;;2.10;;
49840;SDS011;35738;49.890;5.930;2022-09-09T06:29:03;6.05;;;1.70;;
49840;SDS011;35738;49.890;5.930;2022-09-09T06:31:34;12.23;;;2.63;;
49840;SDS011;35738;49.890;5.930;2022-09-09T06:34:07;4.90;;;1.85;;
49840;SDS011;35738;49.890;5.930;2022-09-09T06:36:36;4.05;;;1.52;;
49840;SDS011;35738;49.890;5.930;2022-09-09T06:39:06;6.55;;;1.80;;
49840;SDS011;35738;49.890;5.930;2022-09-09T06:41:40;6.00;;;2.00;;
49840;SDS011;35738;49.890;5.930;2022-09-09T06:44:10;5.10;;;2.00;;
49840;SDS011;35738;49.890;5.930;2022-09-09T06:46:41;10.02;;;2.45;;
49840;SDS011;35738;49.890;5.930;2022-09-09T06:49:08;6.72;;;1.70;;
49840;SDS011;35738;49.890;5.930;2022-09-09T06:51:36;6.32;;;1.70;;
49840;SDS011;35738;49.890;5.930;2022-09-09T06:54:11;9.25;;;2.28;;
49840;SDS011;35738;49.890;5.930;2022-09-09T06:56:39;5.75;;;1.83;;
49840;SDS011;35738;49.890;5.930;2022-09-09T06:59:08;8.13;;;1.77;;
49840;SDS011;35738;49.890;5.930;2022-09-09T07:01:36;9.20;;;1.90;;
49840;SDS011;35738;49.890;5.930;2022-09-09T07:04:17;6.05;;;1.80;;
49840;SDS011;35738;49.890;5.930;2022-09-09T07:06:49;5.28;;;1.77;;
49840;SDS011;35738;49.890;5.930;2022-09-09T07:09:18;7.65;;;1.98;;
49840;SDS011;35738;49.890;5.930;2022-09-09T07:11:49;8.20;;;2.00;;
49840;SDS011;35738;49.890;5.930;2022-09-09T07:14:18;6.88;;;1.70;;
49840;SDS011;35738;49.890;5.930;2022-09-09T07:16:46;8.48;;;2.15;;
49840;SDS011;35738;49.890;5.930;2022-09-09T07:21:52;9.13;;;2.10;;
49840;SDS011;35738;49.890;5.930;2022-09-09T07:24:18;16.23;;;2.63;;
49840;SDS011;35738;49.890;5.930;2022-09-09T07:26:48;7.45;;;1.95;;
49840;SDS011;35738;49.890;5.930;2022-09-09T07:29:18;7.38;;;2.00;;
49840;SDS011;35738;49.890;5.930;2022-09-09T07:31:53;4.70;;;2.13;;
49840;SDS011;35738;49.890;5.930;2022-09-09T07:34:22;6.60;;;2.00;;
49840;SDS011;35738;49.890;5.930;2022-09-09T07:36:50;5.43;;;2.00;;
49840;SDS011;35738;49.890;5.930;2022-09-09T07:39:20;5.32;;;2.10;;
49840;SDS011;35738;49.890;5.930;2022-09-09T07:41:49;5.88;;;2.00;;
49840;SDS011;35738;49.890;5.930;2022-09-09T07:44:20;4.70;;;1.60;;
49840;SDS011;35738;49.890;5.930;2022-09-09T07:46:48;9.55;;;2.25;;
49840;SDS011;35738;49.890;5.930;2022-09-09T07:49:20;5.88;;;1.60;;
49840;SDS011;35738;49.890;5.930;2022-09-09T07:51:56;8.45;;;1.95;;
49840;SDS011;35738;49.890;5.930;2022-09-09T07:54:22;5.65;;;1.80;;
49840;SDS011;35738;49.890;5.930;2022-09-09T07:56:50;7.88;;;2.15;;
49840;SDS011;35738;49.890;5.930;2022-09-09T07:59:19;5.55;;;2.10;;
49840;SDS011;35738;49.890;5.930;2022-09-09T08:01:46;9.45;;;2.38;;
49840;SDS011;35738;49.890;5.930;2022-09-09T08:04:21;8.65;;;1.98;;
49840;SDS011;35738;49.890;5.930;2022-09-09T08:06:53;6.07;;;2.13;;
49840;SDS011;35738;49.890;5.930;2022-09-09T08:09:23;12.25;;;2.40;;
49840;SDS011;35738;49.890;5.930;2022-09-09T08:11:55;8.25;;;2.10;;
49840;SDS011;35738;49.890;5.930;2022-09-09T08:14:25;5.70;;;2.05;;
49840;SDS011;35738;49.890;5.930;2022-09-09T08:16:52;6.20;;;1.90;;
49840;SDS011;35738;49.890;5.930;2022-09-09T08:19:23;6.82;;;2.00;;
49840;SDS011;35738;49.890;5.930;2022-09-09T08:21:50;7.80;;;1.85;;
49840;SDS011;35738;49.890;5.930;2022-09-09T08:24:18;5.88;;;2.03;;
49840;SDS011;35738;49.890;5.930;2022-09-09T08:26:47;6.68;;;1.90;;
49840;SDS011;35738;49.890;5.930;2022-09-09T08:29:18;5.40;;;1.63;;
49840;SDS011;35738;49.890;5.930;2022-09-09T08:31:46;8.30;;;2.00;;
49840;SDS011;35738;49.890;5.930;2022-09-09T08:34:17;6.43;;;1.65;;
49840;SDS011;35738;49.890;5.930;2022-09-09T08:36:46;4.75;;;1.80;;
49840;SDS011;35738;49.890;5.930;2022-09-09T08:39:15;7.00;;;2.05;;
49840;SDS011;35738;49.890;5.930;2022-09-09T08:41:51;4.43;;;1.75;;
49840;SDS011;35738;49.890;5.930;2022-09-09T08:50:36;6.07;;;1.98;;
49840;SDS011;35738;49.890;5.930;2022-09-09T08:55:47;9.63;;;1.80;;
49840;SDS011;35738;49.890;5.930;2022-09-09T08:58:18;4.97;;;1.80;;
49840;SDS011;35738;49.890;5.930;2022-09-09T09:08:46;9.40;;;2.10;;
49840;SDS011;35738;49.890;5.930;2022-09-09T09:11:14;2.92;;;1.30;;
49840;SDS011;35738;49.890;5.930;2022-09-09T09:17:12;5.63;;;1.80;;
49840;SDS011;35738;49.890;5.930;2022-09-09T09:19:22;9.48;;;1.58;;
49840;SDS011;35738;49.890;5.930;2022-09-09T09:24:54;8.93;;;1.85;;
49840;SDS011;35738;49.890;5.930;2022-09-09T09:30:36;4.45;;;1.40;;
49840;SDS011;35738;49.890;5.930;2022-09-09T09:33:10;5.95;;;1.60;;
49840;SDS011;35738;49.890;5.930;2022-09-09T09:35:43;6.47;;;1.70;;
49840;SDS011;35738;49.890;5.930;2022-09-09T09:38:32;8.15;;;1.90;;
49840;SDS011;35738;49.890;5.930;2022-09-09T09:41:17;6.72;;;1.77;;
49840;SDS011;35738;49.890;5.930;2022-09-09T09:43:59;4.30;;;1.55;;
49840;SDS011;35738;49.890;5.930;2022-09-09T09:46:35;6.57;;;1.80;;
49840;SDS011;35738;49.890;5.930;2022-09-09T09:49:02;7.00;;;1.98;;
49840;SDS011;35738;49.890;5.930;2022-09-09T09:51:32;6.90;;;2.15;;
49840;SDS011;35738;49.890;5.930;2022-09-09T09:54:13;5.13;;;1.50;;
49840;SDS011;35738;49.890;5.930;2022-09-09T09:56:44;7.57;;;1.80;;
49840;SDS011;35738;49.890;5.930;2022-09-09T09:59:46;6.75;;;1.80;;
49840;SDS011;35738;49.890;5.930;2022-09-09T10:04:41;6.97;;;1.58;;
49840;SDS011;35738;49.890;5.930;2022-09-09T10:07:18;5.97;;;1.63;;
49840;SDS011;35738;49.890;5.930;2022-09-09T10:09:52;5.78;;;1.75;;
49840;SDS011;35738;49.890;5.930;2022-09-09T10:13:05;7.05;;;1.73;;
49840;SDS011;35738;49.890;5.930;2022-09-09T10:20:50;3.78;;;1.40;;
49840;SDS011;35738;49.890;5.930;2022-09-09T10:23:41;10.70;;;1.80;;
49840;SDS011;35738;49.890;5.930;2022-09-09T10:35:03;3.33;;;1.50;;
49840;SDS011;35738;49.890;5.930;2022-09-09T10:40:06;6.28;;;1.40;;
49840;SDS011;35738;49.890;5.930;2022-09-09T10:46:29;5.25;;;1.52;;
49840;SDS011;35738;49.890;5.930;2022-09-09T10:56:57;4.15;;;1.38;;
49840;SDS011;35738;49.890;5.930;2022-09-09T10:59:31;2.03;;;1.17;;
49840;SDS011;35738;49.890;5.930;2022-09-09T11:04:59;4.47;;;1.27;;
49840;SDS011;35738;49.890;5.930;2022-09-09T11:07:33;4.10;;;1.42;;
49840;SDS011;35738;49.890;5.930;2022-09-09T11:12:56;2.85;;;1.27;;
49840;SDS011;35738;49.890;5.930;2022-09-09T11:15:41;4.47;;;1.48;;
49840;SDS011;35738;49.890;5.930;2022-09-09T11:18:19;5.15;;;1.60;;
49840;SDS011;35738;49.890;5.930;2022-09-09T11:20:55;4.97;;;1.30;;
49840;SDS011;35738;49.890;5.930;2022-09-09T11:23:28;3.90;;;1.45;;
49840;SDS011;35738;49.890;5.930;2022-09-09T11:26:13;3.92;;;1.30;;
49840;SDS011;35738;49.890;5.930;2022-09-09T11:35:02;4.90;;;1.30;;
49840;SDS011;35738;49.890;5.930;2022-09-09T11:40:38;6.72;;;1.33;;
49840;SDS011;35738;49.890;5.930;2022-09-09T11:43:09;4.15;;;1.33;;
49840;SDS011;35738;49.890;5.930;2022-09-09T11:45:42;3.92;;;1.13;;
49840;SDS011;35738;49.890;5.930;2022-09-09T11:48:28;6.82;;;1.80;;
49840;SDS011;35738;49.890;5.930;2022-09-09T11:50:59;4.55;;;1.20;;
49840;SDS011;35738;49.890;5.930;2022-09-09T11:53:53;5.05;;;1.20;;
49840;SDS011;35738;49.890;5.930;2022-09-09T11:59:20;3.72;;;1.38;;
49840;SDS011;35738;49.890;5.930;2022-09-09T12:01:58;5.47;;;1.42;;
49840;SDS011;35738;49.890;5.930;2022-09-09T12:04:55;4.90;;;1.50;;
49840;SDS011;35738;49.890;5.930;2022-09-09T12:07:26;6.05;;;1.45;;
49840;SDS011;35738;49.890;5.930;2022-09-09T12:10:00;6.85;;;2.20;;
49840;SDS011;35738;49.890;5.930;2022-09-09T12:12:46;4.75;;;1.90;;
49840;SDS011;35738;49.890;5.930;2022-09-09T12:15:18;4.43;;;1.90;;
49840;SDS011;35738;49.890;5.930;2022-09-09T12:17:56;5.15;;;1.90;;
49840;SDS011;35738;49.890;5.930;2022-09-09T12:20:33;4.97;;;1.67;;
49840;SDS011;35738;49.890;5.930;2022-09-09T12:25:46;5.47;;;1.55;;
49840;SDS011;35738;49.890;5.930;2022-09-09T12:28:16;5.97;;;1.92;;
49840;SDS011;35738;49.890;5.930;2022-09-09T12:30:56;3.60;;;1.50;;
49840;SDS011;35738;49.890;5.930;2022-09-09T12:33:33;1.63;;;1.40;;
49840;SDS011;35738;49.890;5.930;2022-09-09T12:36:02;3.38;;;1.40;;
49840;SDS011;35738;49.890;5.930;2022-09-09T12:38:39;1.35;;;1.25;;
49840;SDS011;35738;49.890;5.930;2022-09-09T12:41:17;3.08;;;1.33;;
49840;SDS011;35738;49.890;5.930;2022-09-09T12:43:49;4.25;;;1.60;;
49840;SDS011;35738;49.890;5.930;2022-09-09T12:46:27;3.58;;;1.60;;
49840;SDS011;35738;49.890;5.930;2022-09-09T12:49:03;3.78;;;1.60;;
49840;SDS011;35738;49.890;5.930;2022-09-09T12:51:31;2.75;;;1.40;;
49840;SDS011;35738;49.890;5.930;2022-09-09T12:53:59;3.47;;;1.17;;
49840;SDS011;35738;49.890;5.930;2022-09-09T12:56:27;3.83;;;1.20;;
49840;SDS011;35738;49.890;5.930;2022-09-09T12:58:57;2.28;;;1.23;;
49840;SDS011;35738;49.890;5.930;2022-09-09T13:01:26;2.65;;;1.30;;
49840;SDS011;35738;49.890;5.930;2022-09-09T13:03:55;3.35;;;1.40;;
49840;SDS011;35738;49.890;5.930;2022-09-09T13:06:23;4.43;;;1.88;;
49840;SDS011;35738;49.890;5.930;2022-09-09T13:08:55;2.55;;;1.30;;
49840;SDS011;35738;49.890;5.930;2022-09-09T13:11:34;3.03;;;1.30;;
49840;SDS011;35738;49.890;5.930;2022-09-09T13:14:05;2.58;;;1.27;;
49840;SDS011;35738;49.890;5.930;2022-09-09T13:16:33;2.92;;;1.20;;
49840;SDS011;35738;49.890;5.930;2022-09-09T13:19:08;3.70;;;1.40;;
49840;SDS011;35738;49.890;5.930;2022-09-09T13:21:40;4.45;;;1.42;;
49840;SDS011;35738;49.890;5.930;2022-09-09T13:24:22;2.78;;;1.23;;
49840;SDS011;35738;49.890;5.930;2022-09-09T13:26:55;3.15;;;1.20;;
49840;SDS011;35738;49.890;5.930;2022-09-09T13:29:28;2.70;;;1.40;;
49840;SDS011;35738;49.890;5.930;2022-09-09T13:32:06;2.10;;;1.40;;
49840;SDS011;35738;49.890;5.930;2022-09-09T13:34:49;1.13;;;1.00;;
49840;SDS011;35738;49.890;5.930;2022-09-09T13:37:26;3.88;;;1.40;;
49840;SDS011;35738;49.890;5.930;2022-09-09T13:40:03;2.58;;;1.30;;
49840;SDS011;35738;49.890;5.930;2022-09-09T13:42:33;3.22;;;1.27;;
49840;SDS011;35738;49.890;5.930;2022-09-09T13:45:04;1.98;;;1.20;;
49840;SDS011;35738;49.890;5.930;2022-09-09T13:47:32;4.03;;;1.40;;
49840;SDS011;35738;49.890;5.930;2022-09-09T13:50:18;3.97;;;1.50;;
49840;SDS011;35738;49.890;5.930;2022-09-09T13:52:52;3.65;;;1.60;;
49840;SDS011;35738;49.890;5.930;2022-09-09T13:55:21;3.95;;;1.90;;
49840;SDS011;35738;49.890;5.930;2022-09-09T13:57:53;3.05;;;1.73;;
49840;SDS011;35738;49.890;5.930;2022-09-09T14:00:22;2.65;;;1.38;;
49840;SDS011;35738;49.890;5.930;2022-09-09T14:02:50;3.33;;;1.42;;
49840;SDS011;35738;49.890;5.930;2022-09-09T14:05:18;3.90;;;1.45;;
49840;SDS011;35738;49.890;5.930;2022-09-09T14:07:45;3.03;;;1.45;;
49840;SDS011;35738;49.890;5.930;2022-09-09T14:10:18;4.90;;;1.58;;
49840;SDS011;35738;49.890;5.930;2022-09-09T14:12:45;5.43;;;1.60;;
49840;SDS011;35738;49.890;5.930;2022-09-09T14:15:14;4.93;;;1.23;;
49840;SDS011;35738;49.890;5.930;2022-09-09T14:17:41;4.20;;;1.60;;
49840;SDS011;35738;49.890;5.930;2022-09-09T14:20:08;4.55;;;1.55;;
49840;SDS011;35738;49.890;5.930;2022-09-09T14:22:38;4.80;;;1.40;;
49840;SDS011;35738;49.890;5.930;2022-09-09T14:25:05;2.47;;;1.48;;
49840;SDS011;35738;49.890;5.930;2022-09-09T14:27:33;3.05;;;1.30;;
49840;SDS011;35738;49.890;5.930;2022-09-09T14:30:00;3.08;;;1.25;;
49840;SDS011;35738;49.890;5.930;2022-09-09T14:32:27;3.63;;;1.30;;
49840;SDS011;35738;49.890;5.930;2022-09-09T14:34:53;3.35;;;1.40;;
49840;SDS011;35738;49.890;5.930;2022-09-09T14:37:20;4.00;;;1.40;;
49840;SDS011;35738;49.890;5.930;2022-09-09T14:39:47;7.85;;;2.05;;
49840;SDS011;35738;49.890;5.930;2022-09-09T14:42:17;2.55;;;1.20;;
49840;SDS011;35738;49.890;5.930;2022-09-09T14:44:44;3.33;;;1.40;;
49840;SDS011;35738;49.890;5.930;2022-09-09T14:47:10;3.67;;;1.30;;
49840;SDS011;35738;49.890;5.930;2022-09-09T14:49:37;3.90;;;1.40;;
49840;SDS011;35738;49.890;5.930;2022-09-09T14:52:08;3.22;;;1.30;;
49840;SDS011;35738;49.890;5.930;2022-09-09T14:54:36;3.97;;;1.30;;
49840;SDS011;35738;49.890;5.930;2022-09-09T14:57:02;2.75;;;1.25;;
49840;SDS011;35738;49.890;5.930;2022-09-09T14:59:31;5.13;;;1.50;;
49840;SDS011;35738;49.890;5.930;2022-09-09T15:01:58;2.83;;;1.33;;
49840;SDS011;35738;49.890;5.930;2022-09-09T15:04:27;1.88;;;1.17;;
49840;SDS011;35738;49.890;5.930;2022-09-09T15:06:53;4.88;;;1.58;;
49840;SDS011;35738;49.890;5.930;2022-09-09T15:09:21;5.00;;;1.50;;
49840;SDS011;35738;49.890;5.930;2022-09-09T15:11:49;4.38;;;1.70;;
49840;SDS011;35738;49.890;5.930;2022-09-09T15:14:15;4.03;;;1.73;;
49840;SDS011;35738;49.890;5.930;2022-09-09T15:16:45;4.65;;;1.63;;
49840;SDS011;35738;49.890;5.930;2022-09-09T15:19:12;3.17;;;1.70;;
49840;SDS011;35738;49.890;5.930;2022-09-09T15:21:38;3.38;;;1.58;;
49840;SDS011;35738;49.890;5.930;2022-09-09T15:24:05;5.93;;;1.60;;
49840;SDS011;35738;49.890;5.930;2022-09-09T15:26:34;2.90;;;1.55;;
49840;SDS011;35738;49.890;5.930;2022-09-09T15:29:05;3.08;;;1.77;;
49840;SDS011;35738;49.890;5.930;2022-09-09T15:31:33;3.75;;;1.42;;
49840;SDS011;35738;49.890;5.930;2022-09-09T15:34:02;5.03;;;2.03;;
49840;SDS011;35738;49.890;5.930;2022-09-09T15:36:36;4.40;;;1.77;;
49840;SDS011;35738;49.890;5.930;2022-09-09T15:39:08;5.70;;;1.63;;
49840;SDS011;35738;49.890;5.930;2022-09-09T15:41:42;2.95;;;1.80;;
49840;SDS011;35738;49.890;5.930;2022-09-09T15:44:11;2.70;;;1.60;;
49840;SDS011;35738;49.890;5.930;2022-09-09T15:46:42;5.70;;;1.65;;
49840;SDS011;35738;49.890;5.930;2022-09-09T15:49:16;4.70;;;1.63;;
49840;SDS011;35738;49.890;5.930;2022-09-09T15:51:45;5.28;;;2.08;;
49840;SDS011;35738;49.890;5.930;2022-09-09T15:54:17;5.32;;;1.67;;
49840;SDS011;35738;49.890;5.930;2022-09-09T15:56:45;3.40;;;1.63;;
49840;SDS011;35738;49.890;5.930;2022-09-09T15:59:15;5.45;;;1.70;;
49840;SDS011;35738;49.890;5.930;2022-09-09T16:01:42;2.80;;;1.40;;
49840;SDS011;35738;49.890;5.930;2022-09-09T16:04:11;5.43;;;1.50;;
49840;SDS011;35738;49.890;5.930;2022-09-09T16:06:41;5.35;;;1.60;;
49840;SDS011;35738;49.890;5.930;2022-09-09T16:09:08;5.95;;;1.70;;
49840;SDS011;35738;49.890;5.930;2022-09-09T16:11:37;5.30;;;1.80;;
49840;SDS011;35738;49.890;5.930;2022-09-09T16:14:05;2.90;;;1.50;;
49840;SDS011;35738;49.890;5.930;2022-09-09T16:16:33;4.90;;;1.38;;
49840;SDS011;35738;49.890;5.930;2022-09-09T16:19:09;1.45;;;0.90;;
49840;SDS011;35738;49.890;5.930;2022-09-09T16:21:39;2.50;;;1.00;;
49840;SDS011;35738;49.890;5.930;2022-09-09T16:24:09;1.40;;;1.05;;
49840;SDS011;35738;49.890;5.930;2022-09-09T16:26:39;2.17;;;1.20;;
49840;SDS011;35738;49.890;5.930;2022-09-09T16:29:07;3.08;;;0.95;;
49840;SDS011;35738;49.890;5.930;2022-09-09T16:31:35;2.30;;;0.90;;
49840;SDS011;35738;49.890;5.930;2022-09-09T16:34:02;2.45;;;1.00;;
49840;SDS011;35738;49.890;5.930;2022-09-09T16:36:32;3.60;;;1.45;;
49840;SDS011;35738;49.890;5.930;2022-09-09T16:39:04;4.22;;;1.30;;
49840;SDS011;35738;49.890;5.930;2022-09-09T16:41:32;3.13;;;1.00;;
49840;SDS011;35738;49.890;5.930;2022-09-09T16:44:01;4.57;;;1.35;;
49840;SDS011;35738;49.890;5.930;2022-09-09T16:46:33;3.40;;;1.27;;
49840;SDS011;35738;49.890;5.930;2022-09-09T16:49:03;1.63;;;1.30;;
49840;SDS011;35738;49.890;5.930;2022-09-09T16:51:39;3.65;;;1.20;;
49840;SDS011;35738;49.890;5.930;2022-09-09T16:54:13;5.25;;;1.17;;
49840;SDS011;35738;49.890;5.930;2022-09-09T16:56:42;1.42;;;1.13;;
49840;SDS011;35738;49.890;5.930;2022-09-09T16:59:13;2.28;;;1.40;;
49840;SDS011;35738;49.890;5.930;2022-09-09T17:01:43;5.70;;;1.65;;
49840;SDS011;35738;49.890;5.930;2022-09-09T17:04:15;2.78;;;1.35;;
49840;SDS011;35738;49.890;5.930;2022-09-09T17:06:47;3.70;;;1.40;;
49840;SDS011;35738;49.890;5.930;2022-09-09T17:09:18;3.22;;;1.58;;
49840;SDS011;35738;49.890;5.930;2022-09-09T17:11:46;4.55;;;1.30;;
49840;SDS011;35738;49.890;5.930;2022-09-09T17:14:15;2.58;;;1.40;;